MSC Flavia — 3FBD7 — position and weather

sailwx.info

Track history (hours):
 
Tides and Currents Weather Stations Pressure Air Temp Water Temp Dewpoint Dewpoint Depression Visibility Wind Speed Wind Dir Waves Ship Positions

MSC Flavia

Last reported at 2015-Jan-25 17:14 UTC. Time now 2015-Jan-25 18:19 UTC.
Position N 24°26' E 118°02'.

Length 366 m; draft 12.2 m.

Type: Ship (hazmat cat A). MMSI: 373004000.

Date/timePositionNaut miles runAvg speedWind from/ knotsBaromVisibWave heightAir tempDewpointWater temp
2015-Jan-25 17:14N 24°26' E 118°02'0 0.1
2015-Jan-25 16:26N 24°26' E 118°02'5 5.9
2015-Jan-25 15:33N 24°24' E 118°07'1313.1
2015-Jan-25 14:33N 24°14' E 118°16'6 2.4
2015-Jan-25 12:14N 24°11' E 118°22'0 0.0
2015-Jan-25 09:32N 24°11' E 118°22'0 0.1
2015-Jan-25 07:10N 24°11' E 118°21'3 4.6
2015-Jan-25 06:33N 24°09' E 118°22'1514.7
2015-Jan-25 05:33N 23°54' E 118°19'1515.2
2015-Jan-25 04:33N 23°43' E 118°07'1615.8
2015-Jan-25 03:32N 23°31' E 117°56'1515.4
2015-Jan-25 02:33N 23°20' E 117°44'3014.1
2015-Jan-25 00:26N 23°01' E 117°19'1112.6
2015-Jan-24 23:33N 22°56' E 117°09'1211.7
2015-Jan-24 22:33N 22°52' E 116°57'1312.9
2015-Jan-24 21:33N 22°46' E 116°44'131 3.4
2015-Jan-23 07:29N 22°17' E 114°26'19 9.8
2015-Jan-23 05:33N 22°19' E 114°06'1 1.1
2015-Jan-23 04:17N 22°20' E 114°07'0 0.0
2015-Jan-23 03:29N 22°20' E 114°07'0 0.0
2015-Jan-23 02:29N 22°20' E 114°07'0 0.0
2015-Jan-23 01:20N 22°20' E 114°07'0 0.0
2015-Jan-23 00:32N 22°20' E 114°07'0 0.0
2015-Jan-22 23:32N 22°20' E 114°07'0 0.0
2015-Jan-22 22:26N 22°20' E 114°07'0 0.0
2015-Jan-22 21:26N 22°20' E 114°07'0 0.0
2015-Jan-22 20:32N 22°20' E 114°07'0 0.0
2015-Jan-22 19:32N 22°20' E 114°07'0 0.0
2015-Jan-22 18:32N 22°20' E 114°07'0 0.0
2015-Jan-22 17:32N 22°20' E 114°07'0 0.0
2015-Jan-22 16:29N 22°20' E 114°07'0 0.0
2015-Jan-22 15:26N 22°20' E 114°07'0 0.0
2015-Jan-22 14:32N 22°20' E 114°07'0 0.0
2015-Jan-22 13:32N 22°20' E 114°07'0 0.0
2015-Jan-22 12:23N 22°20' E 114°07'0 0.0
2015-Jan-22 11:29N 22°20' E 114°07'0 0.0
2015-Jan-22 10:26N 22°20' E 114°07'0 0.0
2015-Jan-22 09:29N 22°20' E 114°07'1 0.6
2015-Jan-22 08:34N 22°19' E 114°07'10 8.1
2015-Jan-22 07:23N 22°11' E 114°12'6 6.2
2015-Jan-22 06:24N 22°08' E 114°18'7 8.5
2015-Jan-22 05:33N 22°02' E 114°21'2912.8
2015-Jan-22 03:16N 21°51' E 113°52'1216.8
2015-Jan-22 02:33N 22°03' E 113°51'9 9.3
2015-Jan-22 01:32N 22°13' E 113°49'1111.4
2015-Jan-22 00:33N 22°24' E 113°51'5 0.8
2015-Jan-21 18:06N 22°29' E 113°52'0 0.0
2015-Jan-21 15:24N 22°29' E 113°52'0 0.0
2015-Jan-21 07:33N 22°29' E 113°52'4 4.3
2015-Jan-21 06:33N 22°25' E 113°51'1212.2
2015-Jan-21 05:33N 22°13' E 113°50'1210.1
2015-Jan-21 04:24N 22°01' E 113°51'  
2015-Jan-18 05:26N 01°16' E 104°16'1820.6
2015-Jan-18 04:33N 01°14' E 103°58'1211.6
2015-Jan-18 03:33N 01°15' E 103°46'1 0.1
2015-Jan-17 15:31N 01°17' E 103°45'0 0.0
2015-Jan-17 14:25N 01°17' E 103°45'0 0.0
2015-Jan-17 13:13N 01°17' E 103°45'0 0.0
2015-Jan-17 11:16N 01°17' E 103°45'0 0.0
2015-Jan-17 09:25N 01°17' E 103°45'0 0.0
2015-Jan-17 07:31N 01°17' E 103°45'0 0.0
2015-Jan-17 06:31N 01°17' E 103°45'0 0.0
2015-Jan-17 05:19N 01°17' E 103°45'0 0.0
2015-Jan-17 04:19N 01°17' E 103°45'0 0.0
2015-Jan-17 02:28N 01°17' E 103°45'0 0.0
2015-Jan-17 01:31N 01°17' E 103°45'0 0.0
2015-Jan-17 00:31N 01°17' E 103°45'0 0.0
2015-Jan-16 23:31N 01°17' E 103°45'0 0.0
2015-Jan-16 22:19N 01°17' E 103°45'0 0.0
2015-Jan-16 21:31N 01°17' E 103°45'0 0.0
2015-Jan-16 20:31N 01°17' E 103°45'0 0.0
2015-Jan-16 19:16N 01°17' E 103°45'0 0.2
2015-Jan-16 18:26N 01°16' E 103°45'1 1.7
2015-Jan-16 17:33N 01°15' E 103°46'6 5.8
2015-Jan-16 16:32N 01°13' E 103°40'7214.4
2015-Jan-16 11:32N 01°45' E 102°35'1919.6
2015-Jan-16 10:33N 01°52' E 102°18'  
Track history (hours):
 
Tides and Currents Weather Stations Pressure Air Temp Water Temp Dewpoint Dewpoint Depression Visibility Wind Speed Wind Dir Waves Ship Positions

MSC Flavia

Last reported at 2015-Jan-25 17:14 UTC. Time now 2015-Jan-25 18:19 UTC.
Position N 24°26' E 118°02'.

Length 366 m; draft 12.2 m.

Type: Ship (hazmat cat A). MMSI: 373004000.

Date/timePositionNaut miles runAvg speedWind from/ knotsBaromVisibWave heightAir tempDewpointWater temp
2015-Jan-25 17:14N 24°26' E 118°02'0 0.1
2015-Jan-25 16:26N 24°26' E 118°02'5 5.9
2015-Jan-25 15:33N 24°24' E 118°07'1313.1
2015-Jan-25 14:33N 24°14' E 118°16'6 2.4
2015-Jan-25 12:14N 24°11' E 118°22'0 0.0
2015-Jan-25 09:32N 24°11' E 118°22'0 0.1
2015-Jan-25 07:10N 24°11' E 118°21'3 4.6
2015-Jan-25 06:33N 24°09' E 118°22'1514.7
2015-Jan-25 05:33N 23°54' E 118°19'1515.2
2015-Jan-25 04:33N 23°43' E 118°07'1615.8
2015-Jan-25 03:32N 23°31' E 117°56'1515.4
2015-Jan-25 02:33N 23°20' E 117°44'3014.1
2015-Jan-25 00:26N 23°01' E 117°19'1112.6
2015-Jan-24 23:33N 22°56' E 117°09'1211.7
2015-Jan-24 22:33N 22°52' E 116°57'1312.9
2015-Jan-24 21:33N 22°46' E 116°44'131 3.4
2015-Jan-23 07:29N 22°17' E 114°26'19 9.8
2015-Jan-23 05:33N 22°19' E 114°06'1 1.1
2015-Jan-23 04:17N 22°20' E 114°07'0 0.0
2015-Jan-23 03:29N 22°20' E 114°07'0 0.0
2015-Jan-23 02:29N 22°20' E 114°07'0 0.0
2015-Jan-23 01:20N 22°20' E 114°07'0 0.0
2015-Jan-23 00:32N 22°20' E 114°07'0 0.0
2015-Jan-22 23:32N 22°20' E 114°07'0 0.0
2015-Jan-22 22:26N 22°20' E 114°07'0 0.0
2015-Jan-22 21:26N 22°20' E 114°07'0 0.0
2015-Jan-22 20:32N 22°20' E 114°07'0 0.0
2015-Jan-22 19:32N 22°20' E 114°07'0 0.0
2015-Jan-22 18:32N 22°20' E 114°07'0 0.0
2015-Jan-22 17:32N 22°20' E 114°07'0 0.0
2015-Jan-22 16:29N 22°20' E 114°07'0 0.0
2015-Jan-22 15:26N 22°20' E 114°07'0 0.0
2015-Jan-22 14:32N 22°20' E 114°07'0 0.0
2015-Jan-22 13:32N 22°20' E 114°07'0 0.0
2015-Jan-22 12:23N 22°20' E 114°07'0 0.0
2015-Jan-22 11:29N 22°20' E 114°07'0 0.0
2015-Jan-22 10:26N 22°20' E 114°07'0 0.0
2015-Jan-22 09:29N 22°20' E 114°07'1 0.6
2015-Jan-22 08:34N 22°19' E 114°07'10 8.1
2015-Jan-22 07:23N 22°11' E 114°12'6 6.2
2015-Jan-22 06:24N 22°08' E 114°18'7 8.5
2015-Jan-22 05:33N 22°02' E 114°21'2912.8
2015-Jan-22 03:16N 21°51' E 113°52'1216.8
2015-Jan-22 02:33N 22°03' E 113°51'9 9.3
2015-Jan-22 01:32N 22°13' E 113°49'1111.4
2015-Jan-22 00:33N 22°24' E 113°51'5 0.8
2015-Jan-21 18:06N 22°29' E 113°52'0 0.0
2015-Jan-21 15:24N 22°29' E 113°52'0 0.0
2015-Jan-21 07:33N 22°29' E 113°52'4 4.3
2015-Jan-21 06:33N 22°25' E 113°51'1212.2
2015-Jan-21 05:33N 22°13' E 113°50'1210.1
2015-Jan-21 04:24N 22°01' E 113°51'  
2015-Jan-18 05:26N 01°16' E 104°16'1820.6
2015-Jan-18 04:33N 01°14' E 103°58'1211.6
2015-Jan-18 03:33N 01°15' E 103°46'1 0.1
2015-Jan-17 15:31N 01°17' E 103°45'0 0.0
2015-Jan-17 14:25N 01°17' E 103°45'0 0.0
2015-Jan-17 13:13N 01°17' E 103°45'0 0.0
2015-Jan-17 11:16N 01°17' E 103°45'0 0.0
2015-Jan-17 09:25N 01°17' E 103°45'0 0.0
2015-Jan-17 07:31N 01°17' E 103°45'0 0.0
2015-Jan-17 06:31N 01°17' E 103°45'0 0.0
2015-Jan-17 05:19N 01°17' E 103°45'0 0.0
2015-Jan-17 04:19N 01°17' E 103°45'0 0.0
2015-Jan-17 02:28N 01°17' E 103°45'0 0.0
2015-Jan-17 01:31N 01°17' E 103°45'0 0.0
2015-Jan-17 00:31N 01°17' E 103°45'0 0.0
2015-Jan-16 23:31N 01°17' E 103°45'0 0.0
2015-Jan-16 22:19N 01°17' E 103°45'0 0.0
2015-Jan-16 21:31N 01°17' E 103°45'0 0.0
2015-Jan-16 20:31N 01°17' E 103°45'0 0.0
2015-Jan-16 19:16N 01°17' E 103°45'0 0.2
2015-Jan-16 18:26N 01°16' E 103°45'1 1.7
2015-Jan-16 17:33N 01°15' E 103°46'6 5.8
2015-Jan-16 16:32N 01°13' E 103°40'7214.4
2015-Jan-16 11:32N 01°45' E 102°35'1919.6
2015-Jan-16 10:33N 01°52' E 102°18'  

Dump ship's entire track history